sensor_id;sensor_type;location;lat;lon;timestamp;temperature;humidity
1956;DHT22;978;48.314;11.562;2022-12-04T00:00:00;21.90;66.30
1956;DHT22;978;48.314;11.562;2022-12-04T00:02:29;21.90;66.30
1956;DHT22;978;48.314;11.562;2022-12-04T00:04:56;21.90;66.30
1956;DHT22;978;48.314;11.562;2022-12-04T00:07:23;21.90;66.30
1956;DHT22;978;48.314;11.562;2022-12-04T00:09:50;21.90;66.30
1956;DHT22;978;48.314;11.562;2022-12-04T00:12:16;21.90;66.30
1956;DHT22;978;48.314;11.562;2022-12-04T00:14:43;21.90;66.30
1956;DHT22;978;48.314;11.562;2022-12-04T00:17:10;21.90;66.30
1956;DHT22;978;48.314;11.562;2022-12-04T00:19:38;21.90;66.30
1956;DHT22;978;48.314;11.562;2022-12-04T00:22:04;21.90;66.30
1956;DHT22;978;48.314;11.562;2022-12-04T00:24:31;21.90;66.30
1956;DHT22;978;48.314;11.562;2022-12-04T00:26:59;21.90;66.30
1956;DHT22;978;48.314;11.562;2022-12-04T00:29:25;21.90;66.30
1956;DHT22;978;48.314;11.562;2022-12-04T00:31:52;21.90;66.20
1956;DHT22;978;48.314;11.562;2022-12-04T00:34:19;21.90;66.20
1956;DHT22;978;48.314;11.562;2022-12-04T00:36:48;21.90;66.30
1956;DHT22;978;48.314;11.562;2022-12-04T00:39:15;21.90;66.30
1956;DHT22;978;48.314;11.562;2022-12-04T00:41:41;21.90;66.30
1956;DHT22;978;48.314;11.562;2022-12-04T00:44:08;21.90;66.30
1956;DHT22;978;48.314;11.562;2022-12-04T00:46:35;21.90;66.30
1956;DHT22;978;48.314;11.562;2022-12-04T00:49:02;21.90;66.20
1956;DHT22;978;48.314;11.562;2022-12-04T00:51:29;21.90;66.20
1956;DHT22;978;48.314;11.562;2022-12-04T00:53:57;21.90;66.20
1956;DHT22;978;48.314;11.562;2022-12-04T00:56:25;21.90;66.20
1956;DHT22;978;48.314;11.562;2022-12-04T00:58:54;21.90;66.20
1956;DHT22;978;48.314;11.562;2022-12-04T01:01:23;21.90;66.20
1956;DHT22;978;48.314;11.562;2022-12-04T01:03:51;21.90;66.20
1956;DHT22;978;48.314;11.562;2022-12-04T01:06:19;21.90;66.20
1956;DHT22;978;48.314;11.562;2022-12-04T01:08:46;21.90;66.20
1956;DHT22;978;48.314;11.562;2022-12-04T01:11:15;21.90;66.20
1956;DHT22;978;48.314;11.562;2022-12-04T01:13:42;21.90;66.20
1956;DHT22;978;48.314;11.562;2022-12-04T01:16:15;21.90;66.20
1956;DHT22;978;48.314;11.562;2022-12-04T01:18:42;21.90;66.20
1956;DHT22;978;48.314;11.562;2022-12-04T01:21:08;21.90;66.20
1956;DHT22;978;48.314;11.562;2022-12-04T01:23:35;21.90;66.20
1956;DHT22;978;48.314;11.562;2022-12-04T01:26:02;21.90;66.20
1956;DHT22;978;48.314;11.562;2022-12-04T01:28:30;21.90;66.20
1956;DHT22;978;48.314;11.562;2022-12-04T01:30:58;21.90;66.10
1956;DHT22;978;48.314;11.562;2022-12-04T01:33:25;21.90;66.20
1956;DHT22;978;48.314;11.562;2022-12-04T01:35:53;21.90;66.20
1956;DHT22;978;48.314;11.562;2022-12-04T01:38:20;21.90;66.20
1956;DHT22;978;48.314;11.562;2022-12-04T01:40:47;21.90;66.20
1956;DHT22;978;48.314;11.562;2022-12-04T01:43:14;21.90;66.20
1956;DHT22;978;48.314;11.562;2022-12-04T01:45:44;21.90;66.20
1956;DHT22;978;48.314;11.562;2022-12-04T01:48:20;21.90;66.20
1956;DHT22;978;48.314;11.562;2022-12-04T01:50:49;21.90;66.10
1956;DHT22;978;48.314;11.562;2022-12-04T01:53:19;21.90;66.10
1956;DHT22;978;48.314;11.562;2022-12-04T01:55:46;21.90;66.10
1956;DHT22;978;48.314;11.562;2022-12-04T01:58:14;21.90;66.10
1956;DHT22;978;48.314;11.562;2022-12-04T02:00:44;21.90;66.10
1956;DHT22;978;48.314;11.562;2022-12-04T02:03:12;21.90;66.10
1956;DHT22;978;48.314;11.562;2022-12-04T02:05:39;21.90;66.10
1956;DHT22;978;48.314;11.562;2022-12-04T02:08:05;21.90;66.10
1956;DHT22;978;48.314;11.562;2022-12-04T02:10:39;21.90;66.10
1956;DHT22;978;48.314;11.562;2022-12-04T02:13:13;21.90;66.10
1956;DHT22;978;48.314;11.562;2022-12-04T02:15:48;21.90;66.10
1956;DHT22;978;48.314;11.562;2022-12-04T02:18:21;21.90;66.10
1956;DHT22;978;48.314;11.562;2022-12-04T02:20:53;21.90;66.10
1956;DHT22;978;48.314;11.562;2022-12-04T02:23:49;21.90;66.10
1956;DHT22;978;48.314;11.562;2022-12-04T02:26:32;21.90;66.10
1956;DHT22;978;48.314;11.562;2022-12-04T02:29:07;21.90;66.10
1956;DHT22;978;48.314;11.562;2022-12-04T02:31:39;21.90;66.10
1956;DHT22;978;48.314;11.562;2022-12-04T02:34:13;21.90;66.10
1956;DHT22;978;48.314;11.562;2022-12-04T02:36:44;21.90;66.10
1956;DHT22;978;48.314;11.562;2022-12-04T02:39:18;21.90;66.10
1956;DHT22;978;48.314;11.562;2022-12-04T02:41:53;21.90;66.10
1956;DHT22;978;48.314;11.562;2022-12-04T02:44:26;21.90;66.20
1956;DHT22;978;48.314;11.562;2022-12-04T02:46:57;21.90;66.10
1956;DHT22;978;48.314;11.562;2022-12-04T02:49:29;21.90;66.20
1956;DHT22;978;48.314;11.562;2022-12-04T02:51:58;21.90;66.20
1956;DHT22;978;48.314;11.562;2022-12-04T02:54:29;21.90;66.20
1956;DHT22;978;48.314;11.562;2022-12-04T02:56:57;21.90;66.20
1956;DHT22;978;48.314;11.562;2022-12-04T02:59:29;21.90;66.20
1956;DHT22;978;48.314;11.562;2022-12-04T03:02:00;21.90;66.20
1956;DHT22;978;48.314;11.562;2022-12-04T03:04:29;21.90;66.20
1956;DHT22;978;48.314;11.562;2022-12-04T03:06:58;21.90;66.20
1956;DHT22;978;48.314;11.562;2022-12-04T03:09:28;21.90;66.20
1956;DHT22;978;48.314;11.562;2022-12-04T03:11:59;21.90;66.30
1956;DHT22;978;48.314;11.562;2022-12-04T03:14:31;21.90;66.20
1956;DHT22;978;48.314;11.562;2022-12-04T03:17:05;21.90;66.30
1956;DHT22;978;48.314;11.562;2022-12-04T03:19:36;21.90;66.30
1956;DHT22;978;48.314;11.562;2022-12-04T03:22:08;21.90;66.20
1956;DHT22;978;48.314;11.562;2022-12-04T03:24:39;21.90;66.30
1956;DHT22;978;48.314;11.562;2022-12-04T03:27:11;21.90;66.20
1956;DHT22;978;48.314;11.562;2022-12-04T03:29:43;21.90;66.30
1956;DHT22;978;48.314;11.562;2022-12-04T03:32:15;21.90;66.20
1956;DHT22;978;48.314;11.562;2022-12-04T03:34:50;21.90;66.30
1956;DHT22;978;48.314;11.562;2022-12-04T03:37:23;21.90;66.20
1956;DHT22;978;48.314;11.562;2022-12-04T03:39:56;21.90;66.30
1956;DHT22;978;48.314;11.562;2022-12-04T03:42:26;21.90;66.30
1956;DHT22;978;48.314;11.562;2022-12-04T03:44:59;21.90;66.20
1956;DHT22;978;48.314;11.562;2022-12-04T03:47:32;21.90;66.30
1956;DHT22;978;48.314;11.562;2022-12-04T03:50:02;21.90;66.20
1956;DHT22;978;48.314;11.562;2022-12-04T03:52:38;21.90;66.80
1956;DHT22;978;48.314;11.562;2022-12-04T03:55:14;21.90;66.20
1956;DHT22;978;48.314;11.562;2022-12-04T03:57:44;21.90;66.20
1956;DHT22;978;48.314;11.562;2022-12-04T04:00:15;21.90;66.20
1956;DHT22;978;48.314;11.562;2022-12-04T04:02:47;21.90;66.20
1956;DHT22;978;48.314;11.562;2022-12-04T04:05:15;21.90;66.20
1956;DHT22;978;48.314;11.562;2022-12-04T04:07:46;21.90;66.20
1956;DHT22;978;48.314;11.562;2022-12-04T04:10:15;21.90;66.30
1956;DHT22;978;48.314;11.562;2022-12-04T04:12:46;21.90;66.20
1956;DHT22;978;48.314;11.562;2022-12-04T04:15:40;21.90;66.20
1956;DHT22;978;48.314;11.562;2022-12-04T04:18:26;21.90;66.20
1956;DHT22;978;48.314;11.562;2022-12-04T04:21:12;21.90;66.20
1956;DHT22;978;48.314;11.562;2022-12-04T04:23:57;21.90;66.20
1956;DHT22;978;48.314;11.562;2022-12-04T04:26:42;21.90;66.20
1956;DHT22;978;48.314;11.562;2022-12-04T04:29:11;21.90;66.20
1956;DHT22;978;48.314;11.562;2022-12-04T04:31:42;21.90;66.20
1956;DHT22;978;48.314;11.562;2022-12-04T04:34:17;21.90;66.20
1956;DHT22;978;48.314;11.562;2022-12-04T04:36:53;21.90;66.20
1956;DHT22;978;48.314;11.562;2022-12-04T04:39:26;21.90;66.30
1956;DHT22;978;48.314;11.562;2022-12-04T04:41:58;21.90;66.30
1956;DHT22;978;48.314;11.562;2022-12-04T04:44:33;21.90;66.30
1956;DHT22;978;48.314;11.562;2022-12-04T04:47:06;21.90;66.30
1956;DHT22;978;48.314;11.562;2022-12-04T04:49:38;21.90;66.30
1956;DHT22;978;48.314;11.562;2022-12-04T04:52:07;21.90;66.20
1956;DHT22;978;48.314;11.562;2022-12-04T04:54:35;21.90;66.20
1956;DHT22;978;48.314;11.562;2022-12-04T04:57:02;21.90;66.20
1956;DHT22;978;48.314;11.562;2022-12-04T04:59:29;21.90;66.20
1956;DHT22;978;48.314;11.562;2022-12-04T05:01:56;21.90;66.20
1956;DHT22;978;48.314;11.562;2022-12-04T05:04:24;21.90;66.20
1956;DHT22;978;48.314;11.562;2022-12-04T05:06:51;21.90;66.20
1956;DHT22;978;48.314;11.562;2022-12-04T05:09:18;21.90;66.20
1956;DHT22;978;48.314;11.562;2022-12-04T05:11:45;21.80;66.10
1956;DHT22;978;48.314;11.562;2022-12-04T05:14:11;21.80;66.20
1956;DHT22;978;48.314;11.562;2022-12-04T05:16:38;21.90;66.20
1956;DHT22;978;48.314;11.562;2022-12-04T05:19:06;21.90;66.20
1956;DHT22;978;48.314;11.562;2022-12-04T05:21:51;21.90;66.20
1956;DHT22;978;48.314;11.562;2022-12-04T05:24:18;21.90;66.20
1956;DHT22;978;48.314;11.562;2022-12-04T05:26:45;21.90;66.20
1956;DHT22;978;48.314;11.562;2022-12-04T05:29:11;21.90;66.20
1956;DHT22;978;48.314;11.562;2022-12-04T05:31:38;21.90;66.20
1956;DHT22;978;48.314;11.562;2022-12-04T05:34:05;21.90;66.20
1956;DHT22;978;48.314;11.562;2022-12-04T05:36:32;21.90;66.20
1956;DHT22;978;48.314;11.562;2022-12-04T05:39:00;21.90;66.20
1956;DHT22;978;48.314;11.562;2022-12-04T05:41:26;21.80;66.10
1956;DHT22;978;48.314;11.562;2022-12-04T05:43:53;21.90;66.20
1956;DHT22;978;48.314;11.562;2022-12-04T05:46:20;21.90;66.20
1956;DHT22;978;48.314;11.562;2022-12-04T05:48:46;21.90;66.20
1956;DHT22;978;48.314;11.562;2022-12-04T05:51:13;21.80;66.10
1956;DHT22;978;48.314;11.562;2022-12-04T05:53:40;21.90;66.20
1956;DHT22;978;48.314;11.562;2022-12-04T05:56:09;21.90;66.20
1956;DHT22;978;48.314;11.562;2022-12-04T05:58:37;21.80;66.20
1956;DHT22;978;48.314;11.562;2022-12-04T06:01:08;21.90;66.20
1956;DHT22;978;48.314;11.562;2022-12-04T06:03:35;21.80;66.10
1956;DHT22;978;48.314;11.562;2022-12-04T06:06:02;21.90;66.20
1956;DHT22;978;48.314;11.562;2022-12-04T06:08:30;21.90;66.20
1956;DHT22;978;48.314;11.562;2022-12-04T06:10:56;21.90;66.20
1956;DHT22;978;48.314;11.562;2022-12-04T06:13:24;21.80;66.20
1956;DHT22;978;48.314;11.562;2022-12-04T06:15:51;21.90;66.20
1956;DHT22;978;48.314;11.562;2022-12-04T06:18:18;21.80;66.10
1956;DHT22;978;48.314;11.562;2022-12-04T06:20:45;21.90;66.20
1956;DHT22;978;48.314;11.562;2022-12-04T06:23:11;21.90;66.20
1956;DHT22;978;48.314;11.562;2022-12-04T06:25:38;21.80;66.30
1956;DHT22;978;48.314;11.562;2022-12-04T06:28:05;21.90;66.20
1956;DHT22;978;48.314;11.562;2022-12-04T06:30:34;21.90;66.20
1956;DHT22;978;48.314;11.562;2022-12-04T06:33:01;21.90;66.20
1956;DHT22;978;48.314;11.562;2022-12-04T06:35:28;21.90;66.20
1956;DHT22;978;48.314;11.562;2022-12-04T06:37:55;21.90;66.20
1956;DHT22;978;48.314;11.562;2022-12-04T06:40:21;21.90;66.20
1956;DHT22;978;48.314;11.562;2022-12-04T06:42:48;21.90;66.20
1956;DHT22;978;48.314;11.562;2022-12-04T06:45:15;21.90;66.20
1956;DHT22;978;48.314;11.562;2022-12-04T06:47:43;21.90;66.20
1956;DHT22;978;48.314;11.562;2022-12-04T06:50:10;21.80;66.10
1956;DHT22;978;48.314;11.562;2022-12-04T06:52:37;21.80;66.10
1956;DHT22;978;48.314;11.562;2022-12-04T06:55:04;21.80;66.10
1956;DHT22;978;48.314;11.562;2022-12-04T06:57:32;21.90;66.30
1956;DHT22;978;48.314;11.562;2022-12-04T06:59:59;21.80;66.10
1956;DHT22;978;48.314;11.562;2022-12-04T07:02:25;21.90;66.20
1956;DHT22;978;48.314;11.562;2022-12-04T07:04:54;21.80;66.10
1956;DHT22;978;48.314;11.562;2022-12-04T07:07:22;21.80;66.10
1956;DHT22;978;48.314;11.562;2022-12-04T07:09:48;21.90;66.20
1956;DHT22;978;48.314;11.562;2022-12-04T07:12:15;21.80;66.10
1956;DHT22;978;48.314;11.562;2022-12-04T07:14:42;21.80;66.10
1956;DHT22;978;48.314;11.562;2022-12-04T07:17:09;21.80;66.10
1956;DHT22;978;48.314;11.562;2022-12-04T07:19:36;21.80;66.10
1956;DHT22;978;48.314;11.562;2022-12-04T07:22:04;21.80;66.20
1956;DHT22;978;48.314;11.562;2022-12-04T07:24:31;21.80;66.20
1956;DHT22;978;48.314;11.562;2022-12-04T07:26:57;21.80;66.10
1956;DHT22;978;48.314;11.562;2022-12-04T07:29:24;21.80;66.10
1956;DHT22;978;48.314;11.562;2022-12-04T07:31:51;21.80;66.20
1956;DHT22;978;48.314;11.562;2022-12-04T07:34:17;21.80;66.20
1956;DHT22;978;48.314;11.562;2022-12-04T07:36:44;21.90;66.20
1956;DHT22;978;48.314;11.562;2022-12-04T07:39:12;21.80;66.20
1956;DHT22;978;48.314;11.562;2022-12-04T07:41:39;21.80;66.10
1956;DHT22;978;48.314;11.562;2022-12-04T07:44:06;21.80;66.10
1956;DHT22;978;48.314;11.562;2022-12-04T07:46:32;21.80;66.10
1956;DHT22;978;48.314;11.562;2022-12-04T07:48:59;21.80;66.10
1956;DHT22;978;48.314;11.562;2022-12-04T07:51:27;21.80;66.10
1956;DHT22;978;48.314;11.562;2022-12-04T07:53:54;21.90;66.80
1956;DHT22;978;48.314;11.562;2022-12-04T07:56:24;21.80;66.10
1956;DHT22;978;48.314;11.562;2022-12-04T07:58:50;21.90;66.20
1956;DHT22;978;48.314;11.562;2022-12-04T08:01:19;21.80;66.10
1956;DHT22;978;48.314;11.562;2022-12-04T08:03:50;21.80;66.10
1956;DHT22;978;48.314;11.562;2022-12-04T08:06:19;21.90;66.20
1956;DHT22;978;48.314;11.562;2022-12-04T08:08:47;21.80;66.10
1956;DHT22;978;48.314;11.562;2022-12-04T08:11:16;21.80;65.90
1956;DHT22;978;48.314;11.562;2022-12-04T08:13:44;21.80;65.90
1956;DHT22;978;48.314;11.562;2022-12-04T08:16:12;21.90;65.90
1956;DHT22;978;48.314;11.562;2022-12-04T08:18:39;21.90;65.80
1956;DHT22;978;48.314;11.562;2022-12-04T08:21:12;21.90;66.00
1956;DHT22;978;48.314;11.562;2022-12-04T08:23:40;21.90;65.90
1956;DHT22;978;48.314;11.562;2022-12-04T08:26:07;21.90;65.70
1956;DHT22;978;48.314;11.562;2022-12-04T08:28:35;21.90;65.70
1956;DHT22;978;48.314;11.562;2022-12-04T08:31:04;21.90;65.10
1956;DHT22;978;48.314;11.562;2022-12-04T08:33:31;21.90;65.00
1956;DHT22;978;48.314;11.562;2022-12-04T08:35:59;21.90;64.90
1956;DHT22;978;48.314;11.562;2022-12-04T08:38:25;21.90;64.80
1956;DHT22;978;48.314;11.562;2022-12-04T08:40:52;21.90;64.70
1956;DHT22;978;48.314;11.562;2022-12-04T08:43:19;21.90;64.60
1956;DHT22;978;48.314;11.562;2022-12-04T08:45:54;21.90;64.50
1956;DHT22;978;48.314;11.562;2022-12-04T08:48:22;21.90;64.40
1956;DHT22;978;48.314;11.562;2022-12-04T08:50:48;21.90;64.30
1956;DHT22;978;48.314;11.562;2022-12-04T08:53:15;21.90;64.10
1956;DHT22;978;48.314;11.562;2022-12-04T08:55:42;21.90;64.10
1956;DHT22;978;48.314;11.562;2022-12-04T08:58:09;21.90;64.10
1956;DHT22;978;48.314;11.562;2022-12-04T09:00:36;21.90;64.00
1956;DHT22;978;48.314;11.562;2022-12-04T09:03:03;21.90;63.90
1956;DHT22;978;48.314;11.562;2022-12-04T09:05:31;21.90;63.90
1956;DHT22;978;48.314;11.562;2022-12-04T09:07:57;21.90;63.80
1956;DHT22;978;48.314;11.562;2022-12-04T09:10:24;21.90;63.80
1956;DHT22;978;48.314;11.562;2022-12-04T09:12:51;21.90;63.60
1956;DHT22;978;48.314;11.562;2022-12-04T09:15:17;21.90;63.70
1956;DHT22;978;48.314;11.562;2022-12-04T09:17:44;21.90;63.60
1956;DHT22;978;48.314;11.562;2022-12-04T09:20:11;21.90;63.40
1956;DHT22;978;48.314;11.562;2022-12-04T09:22:40;21.90;63.50
1956;DHT22;978;48.314;11.562;2022-12-04T09:25:07;21.90;63.30
1956;DHT22;978;48.314;11.562;2022-12-04T09:27:37;21.90;63.30
1956;DHT22;978;48.314;11.562;2022-12-04T09:30:06;21.90;63.30
1956;DHT22;978;48.314;11.562;2022-12-04T09:32:33;21.90;63.20
1956;DHT22;978;48.314;11.562;2022-12-04T09:35:00;21.90;63.10
1956;DHT22;978;48.314;11.562;2022-12-04T09:37:27;21.90;63.00
1956;DHT22;978;48.314;11.562;2022-12-04T09:39:55;21.90;63.00
1956;DHT22;978;48.314;11.562;2022-12-04T09:42:30;21.90;63.00
1956;DHT22;978;48.314;11.562;2022-12-04T09:45:02;21.90;63.00
1956;DHT22;978;48.314;11.562;2022-12-04T09:47:32;21.90;63.00
1956;DHT22;978;48.314;11.562;2022-12-04T09:50:04;21.80;62.90
1956;DHT22;978;48.314;11.562;2022-12-04T09:52:43;21.90;62.90
1956;DHT22;978;48.314;11.562;2022-12-04T09:55:14;21.80;62.80
1956;DHT22;978;48.314;11.562;2022-12-04T09:57:44;21.90;62.80
1956;DHT22;978;48.314;11.562;2022-12-04T10:00:15;21.80;62.70
1956;DHT22;978;48.314;11.562;2022-12-04T10:02:44;21.90;62.80
1956;DHT22;978;48.314;11.562;2022-12-04T10:05:17;21.80;62.60
1956;DHT22;978;48.314;11.562;2022-12-04T10:07:51;21.80;62.60
1956;DHT22;978;48.314;11.562;2022-12-04T10:10:29;21.90;62.70
1956;DHT22;978;48.314;11.562;2022-12-04T10:13:08;21.90;62.60
1956;DHT22;978;48.314;11.562;2022-12-04T10:15:46;21.90;62.50
1956;DHT22;978;48.314;11.562;2022-12-04T10:18:22;21.80;62.40
1956;DHT22;978;48.314;11.562;2022-12-04T10:21:12;21.80;62.40
1956;DHT22;978;48.314;11.562;2022-12-04T10:23:51;21.80;62.50
1956;DHT22;978;48.314;11.562;2022-12-04T10:26:24;21.80;62.40
1956;DHT22;978;48.314;11.562;2022-12-04T10:28:55;21.80;62.30
1956;DHT22;978;48.314;11.562;2022-12-04T10:31:23;21.80;62.30
1956;DHT22;978;48.314;11.562;2022-12-04T10:33:54;21.80;62.30
1956;DHT22;978;48.314;11.562;2022-12-04T10:36:25;21.80;62.20
1956;DHT22;978;48.314;11.562;2022-12-04T10:38:55;21.80;62.30
1956;DHT22;978;48.314;11.562;2022-12-04T10:41:29;21.80;62.30
1956;DHT22;978;48.314;11.562;2022-12-04T10:43:56;21.80;62.40
1956;DHT22;978;48.314;11.562;2022-12-04T10:46:24;21.80;62.50
1956;DHT22;978;48.314;11.562;2022-12-04T10:48:54;21.80;62.50
1956;DHT22;978;48.314;11.562;2022-12-04T10:51:23;21.80;62.50
1956;DHT22;978;48.314;11.562;2022-12-04T10:53:50;21.80;62.50
1956;DHT22;978;48.314;11.562;2022-12-04T10:56:19;21.80;62.50
1956;DHT22;978;48.314;11.562;2022-12-04T10:58:59;21.80;62.50
1956;DHT22;978;48.314;11.562;2022-12-04T11:01:27;21.80;62.60
1956;DHT22;978;48.314;11.562;2022-12-04T11:03:58;21.80;62.60
1956;DHT22;978;48.314;11.562;2022-12-04T11:06:26;21.80;62.60
1956;DHT22;978;48.314;11.562;2022-12-04T11:08:54;21.80;62.60
1956;DHT22;978;48.314;11.562;2022-12-04T11:11:26;21.80;62.60
1956;DHT22;978;48.314;11.562;2022-12-04T11:14:04;21.80;62.60
1956;DHT22;978;48.314;11.562;2022-12-04T11:16:37;21.80;62.70
1956;DHT22;978;48.314;11.562;2022-12-04T11:19:18;21.80;62.60
1956;DHT22;978;48.314;11.562;2022-12-04T11:21:45;21.80;62.70
1956;DHT22;978;48.314;11.562;2022-12-04T11:24:18;21.80;62.70
1956;DHT22;978;48.314;11.562;2022-12-04T11:26:47;21.80;62.70
1956;DHT22;978;48.314;11.562;2022-12-04T11:29:17;21.80;62.60
1956;DHT22;978;48.314;11.562;2022-12-04T11:31:47;21.80;62.60
1956;DHT22;978;48.314;11.562;2022-12-04T11:34:17;21.80;62.60
1956;DHT22;978;48.314;11.562;2022-12-04T11:36:50;21.80;62.50
1956;DHT22;978;48.314;11.562;2022-12-04T11:39:19;21.80;62.60
1956;DHT22;978;48.314;11.562;2022-12-04T11:41:47;21.80;62.60
1956;DHT22;978;48.314;11.562;2022-12-04T11:44:26;21.80;62.60
1956;DHT22;978;48.314;11.562;2022-12-04T11:46:54;21.80;62.70
1956;DHT22;978;48.314;11.562;2022-12-04T11:49:23;21.80;62.80
1956;DHT22;978;48.314;11.562;2022-12-04T11:51:58;21.80;62.80
1956;DHT22;978;48.314;11.562;2022-12-04T11:54:30;21.90;63.00
1956;DHT22;978;48.314;11.562;2022-12-04T11:57:02;21.80;62.90
1956;DHT22;978;48.314;11.562;2022-12-04T11:59:51;21.80;63.00
1956;DHT22;978;48.314;11.562;2022-12-04T12:02:34;21.90;63.10
1956;DHT22;978;48.314;11.562;2022-12-04T12:05:25;21.80;63.00
1956;DHT22;978;48.314;11.562;2022-12-04T12:08:01;21.80;63.80
1956;DHT22;978;48.314;11.562;2022-12-04T12:10:32;21.80;63.30
1956;DHT22;978;48.314;11.562;2022-12-04T12:13:06;21.80;63.20
1956;DHT22;978;48.314;11.562;2022-12-04T12:15:43;21.90;63.50
1956;DHT22;978;48.314;11.562;2022-12-04T12:18:26;21.80;63.40
1956;DHT22;978;48.314;11.562;2022-12-04T12:21:03;21.80;63.30
1956;DHT22;978;48.314;11.562;2022-12-04T12:23:44;21.90;63.40
1956;DHT22;978;48.314;11.562;2022-12-04T12:26:16;21.90;63.50
1956;DHT22;978;48.314;11.562;2022-12-04T12:29:01;21.80;63.40
1956;DHT22;978;48.314;11.562;2022-12-04T12:31:57;21.90;63.60
1956;DHT22;978;48.314;11.562;2022-12-04T12:34:34;21.90;63.70
1956;DHT22;978;48.314;11.562;2022-12-04T12:37:09;21.80;63.50
1956;DHT22;978;48.314;11.562;2022-12-04T12:39:39;21.90;63.60
1956;DHT22;978;48.314;11.562;2022-12-04T12:42:13;21.80;63.50
1956;DHT22;978;48.314;11.562;2022-12-04T12:44:46;21.80;63.50
1956;DHT22;978;48.314;11.562;2022-12-04T12:47:17;21.80;63.40
1956;DHT22;978;48.314;11.562;2022-12-04T12:49:47;21.80;63.40
1956;DHT22;978;48.314;11.562;2022-12-04T12:52:23;21.80;63.50
1956;DHT22;978;48.314;11.562;2022-12-04T12:54:56;21.80;63.50
1956;DHT22;978;48.314;11.562;2022-12-04T12:57:28;21.80;63.40
1956;DHT22;978;48.314;11.562;2022-12-04T13:00:02;21.90;63.50
1956;DHT22;978;48.314;11.562;2022-12-04T13:02:34;21.80;63.40
1956;DHT22;978;48.314;11.562;2022-12-04T13:05:04;21.80;63.30
1956;DHT22;978;48.314;11.562;2022-12-04T13:07:39;21.80;63.30
1956;DHT22;978;48.314;11.562;2022-12-04T13:10:13;21.80;63.30
1956;DHT22;978;48.314;11.562;2022-12-04T13:12:43;21.90;63.40
1956;DHT22;978;48.314;11.562;2022-12-04T13:15:13;21.80;63.30
1956;DHT22;978;48.314;11.562;2022-12-04T13:17:43;21.80;63.40
1956;DHT22;978;48.314;11.562;2022-12-04T13:20:15;21.80;63.50
1956;DHT22;978;48.314;11.562;2022-12-04T13:22:54;21.90;63.50
1956;DHT22;978;48.314;11.562;2022-12-04T13:25:33;21.90;63.70
1956;DHT22;978;48.314;11.562;2022-12-04T13:28:10;21.80;63.50
1956;DHT22;978;48.314;11.562;2022-12-04T13:30:45;21.90;63.60
1956;DHT22;978;48.314;11.562;2022-12-04T13:33:53;21.80;63.60
1956;DHT22;978;48.314;11.562;2022-12-04T13:36:46;21.80;63.60
1956;DHT22;978;48.314;11.562;2022-12-04T13:39:47;21.80;63.60
1956;DHT22;978;48.314;11.562;2022-12-04T13:42:22;21.90;63.70
1956;DHT22;978;48.314;11.562;2022-12-04T13:44:55;21.80;63.60
1956;DHT22;978;48.314;11.562;2022-12-04T13:47:27;21.80;63.60
1956;DHT22;978;48.314;11.562;2022-12-04T13:50:20;21.80;63.60
1956;DHT22;978;48.314;11.562;2022-12-04T13:52:50;21.90;63.60
1956;DHT22;978;48.314;11.562;2022-12-04T13:55:23;21.80;63.60
1956;DHT22;978;48.314;11.562;2022-12-04T13:57:55;21.90;63.60
1956;DHT22;978;48.314;11.562;2022-12-04T14:00:29;21.90;63.60
1956;DHT22;978;48.314;11.562;2022-12-04T14:02:59;21.80;63.60
1956;DHT22;978;48.314;11.562;2022-12-04T14:05:31;21.80;63.60
1956;DHT22;978;48.314;11.562;2022-12-04T14:08:01;21.80;63.60
1956;DHT22;978;48.314;11.562;2022-12-04T14:10:30;21.80;63.60
1956;DHT22;978;48.314;11.562;2022-12-04T14:13:00;21.90;63.60
1956;DHT22;978;48.314;11.562;2022-12-04T14:15:30;21.80;63.60
1956;DHT22;978;48.314;11.562;2022-12-04T14:17:59;21.80;63.60
1956;DHT22;978;48.314;11.562;2022-12-04T14:20:30;21.80;63.60
1956;DHT22;978;48.314;11.562;2022-12-04T14:23:07;21.90;63.60
1956;DHT22;978;48.314;11.562;2022-12-04T14:25:36;21.80;63.50
1956;DHT22;978;48.314;11.562;2022-12-04T14:28:22;21.90;63.60
1956;DHT22;978;48.314;11.562;2022-12-04T14:31:01;21.80;63.50
1956;DHT22;978;48.314;11.562;2022-12-04T14:33:30;21.80;63.50
1956;DHT22;978;48.314;11.562;2022-12-04T14:36:02;21.90;63.60
1956;DHT22;978;48.314;11.562;2022-12-04T14:38:31;21.90;63.60
1956;DHT22;978;48.314;11.562;2022-12-04T14:40:58;21.80;63.60
1956;DHT22;978;48.314;11.562;2022-12-04T14:43:29;21.80;63.50
1956;DHT22;978;48.314;11.562;2022-12-04T14:46:03;21.90;63.60
1956;DHT22;978;48.314;11.562;2022-12-04T14:48:38;21.80;63.60
1956;DHT22;978;48.314;11.562;2022-12-04T14:51:16;21.80;63.60
1956;DHT22;978;48.314;11.562;2022-12-04T14:53:48;21.80;63.80
1956;DHT22;978;48.314;11.562;2022-12-04T14:56:23;21.90;63.90
1956;DHT22;978;48.314;11.562;2022-12-04T14:58:53;21.90;63.80
1956;DHT22;978;48.314;11.562;2022-12-04T15:01:23;21.90;64.00
1956;DHT22;978;48.314;11.562;2022-12-04T15:03:53;21.80;64.10
1956;DHT22;978;48.314;11.562;2022-12-04T15:06:24;21.80;64.10
1956;DHT22;978;48.314;11.562;2022-12-04T15:08:53;21.90;64.20
1956;DHT22;978;48.314;11.562;2022-12-04T15:11:44;21.90;64.30
1956;DHT22;978;48.314;11.562;2022-12-04T15:14:38;21.80;64.30
1956;DHT22;978;48.314;11.562;2022-12-04T15:17:05;21.80;64.40
1956;DHT22;978;48.314;11.562;2022-12-04T15:19:31;21.80;64.40
1956;DHT22;978;48.314;11.562;2022-12-04T15:22:01;21.90;64.50
1956;DHT22;978;48.314;11.562;2022-12-04T15:24:28;21.80;64.40
1956;DHT22;978;48.314;11.562;2022-12-04T15:26:55;21.80;64.50
1956;DHT22;978;48.314;11.562;2022-12-04T15:29:24;21.80;64.50
1956;DHT22;978;48.314;11.562;2022-12-04T15:31:54;21.80;64.50
1956;DHT22;978;48.314;11.562;2022-12-04T15:34:27;21.80;64.60
1956;DHT22;978;48.314;11.562;2022-12-04T15:37:01;21.90;64.60
1956;DHT22;978;48.314;11.562;2022-12-04T15:39:33;21.90;64.60
1956;DHT22;978;48.314;11.562;2022-12-04T15:42:04;21.80;64.60
1956;DHT22;978;48.314;11.562;2022-12-04T15:44:33;21.80;64.70
1956;DHT22;978;48.314;11.562;2022-12-04T15:47:02;21.80;64.70
1956;DHT22;978;48.314;11.562;2022-12-04T15:49:30;21.80;64.90
1956;DHT22;978;48.314;11.562;2022-12-04T15:52:11;21.90;65.10
1956;DHT22;978;48.314;11.562;2022-12-04T15:54:41;21.90;65.20
1956;DHT22;978;48.314;11.562;2022-12-04T15:57:24;21.90;65.40
1956;DHT22;978;48.314;11.562;2022-12-04T15:59:52;21.90;65.20
1956;DHT22;978;48.314;11.562;2022-12-04T16:02:24;21.90;65.20
1956;DHT22;978;48.314;11.562;2022-12-04T16:04:53;21.90;65.50
1956;DHT22;978;48.314;11.562;2022-12-04T16:07:22;21.90;65.50
1956;DHT22;978;48.314;11.562;2022-12-04T16:09:52;21.90;65.40
1956;DHT22;978;48.314;11.562;2022-12-04T16:12:24;21.90;65.40
1956;DHT22;978;48.314;11.562;2022-12-04T16:14:52;21.90;65.40
1956;DHT22;978;48.314;11.562;2022-12-04T16:17:19;21.90;65.40
1956;DHT22;978;48.314;11.562;2022-12-04T16:19:46;21.90;65.40
1956;DHT22;978;48.314;11.562;2022-12-04T16:22:15;21.90;65.50
1956;DHT22;978;48.314;11.562;2022-12-04T16:24:44;21.90;65.60